Map

Track Data

SID SEASON NUMBER BASIN SUBBASIN NAME ISO_TIME NATURE LAT LON WMO_WIND WMO_PRES WMO_AGENCY TRACK_TYPE DIST2LAND LANDFALL IFLAG USA_AGENCY USA_ATCF_ID USA_LAT USA_LON USA_RECORD USA_STATUS USA_WIND USA_PRES USA_SSHS USA_R34_NE USA_R34_SE USA_R34_SW USA_R34_NW USA_R50_NE USA_R50_SE USA_R50_SW USA_R50_NW USA_R64_NE USA_R64_SE USA_R64_SW USA_R64_NW USA_POCI USA_ROCI USA_RMW USA_EYE TOKYO_LAT TOKYO_LON TOKYO_GRADE TOKYO_WIND TOKYO_PRES TOKYO_R50_DIR TOKYO_R50_LONG TOKYO_R50_SHORT TOKYO_R30_DIR TOKYO_R30_LONG TOKYO_R30_SHORT TOKYO_LAND CMA_LAT CMA_LON CMA_CAT CMA_WIND CMA_PRES HKO_LAT HKO_LON HKO_CAT HKO_WIND HKO_PRES NEWDELHI_LAT NEWDELHI_LON NEWDELHI_GRADE NEWDELHI_WIND NEWDELHI_PRES NEWDELHI_CI NEWDELHI_DP NEWDELHI_POCI REUNION_LAT REUNION_LON REUNION_TYPE REUNION_WIND REUNION_PRES REUNION_TNUM REUNION_CI REUNION_RMW REUNION_R34_NE REUNION_R34_SE REUNION_R34_SW REUNION_R34_NW REUNION_R50_NE REUNION_R50_SE REUNION_R50_SW REUNION_R50_NW REUNION_R64_NE REUNION_R64_SE REUNION_R64_SW REUNION_R64_NW BOM_LAT BOM_LON BOM_TYPE BOM_WIND BOM_PRES BOM_TNUM BOM_CI BOM_RMW BOM_R34_NE BOM_R34_SE BOM_R34_SW BOM_R34_NW BOM_R50_NE BOM_R50_SE BOM_R50_SW BOM_R50_NW BOM_R64_NE BOM_R64_SE BOM_R64_SW BOM_R64_NW BOM_ROCI BOM_POCI BOM_EYE BOM_POS_METHOD BOM_PRES_METHOD NADI_LAT NADI_LON NADI_CAT NADI_WIND NADI_PRES WELLINGTON_LAT WELLINGTON_LON WELLINGTON_WIND WELLINGTON_PRES DS824_LAT DS824_LON DS824_STAGE DS824_WIND DS824_PRES TD9636_LAT TD9636_LON TD9636_STAGE TD9636_WIND TD9636_PRES TD9635_LAT TD9635_LON TD9635_WIND TD9635_PRES TD9635_ROCI NEUMANN_LAT NEUMANN_LON NEUMANN_CLASS NEUMANN_WIND NEUMANN_PRES MLC_LAT MLC_LON MLC_CLASS MLC_WIND MLC_PRES USA_GUST BOM_GUST BOM_GUST_PER REUNION_GUST REUNION_GUST_PER USA_SEAHGT USA_SEARAD_NE USA_SEARAD_SE USA_SEARAD_SW USA_SEARAD_NW STORM_SPEED STORM_DIR
1973311S17191 1974 120 SP MM NOT_NAMED 1973-11-07 00:00:00 TS -16.8800 -168.840 40 990 wellington main 503 495 O_______OOO_O_ jtwc_sh SH051974 -17.0000 -168.000 -1 -16.7000 -170.100 40 990 -17.0000 192.000 TC 35 -17.0000 -168.000 2 -16.7000 -170.100 TC 25 8 212
1973311S17191 1974 120 SP MM NOT_NAMED 1973-11-07 03:00:00 TS -17.2062 -169.053 main 505 505 P_______PPP_P_ SH051974 -17.2302 -168.465 -1 -17.1766 -169.971 40 990 -17.2302 -168.465 TC 35 -17.2463 -168.440 2 -17.1476 -169.925 TC 25 8 211
1973311S17191 1974 120 SP MM NOT_NAMED 1973-11-07 06:00:00 TS -17.5532 -169.266 main 526 526 O_______POP_O_ jtwc_sh SH051974 -17.5000 -168.900 -1 -17.6425 -169.864 40 990 -17.5000 191.100 TC 35 -17.5237 -168.865 2 -17.6000 -169.800 TC 25 8 209
1973311S17191 1974 120 SP MM NOT_NAMED 1973-11-07 09:00:00 TS -17.9407 -169.476 main 542 542 P_______PPP_P_ SH051974 -17.8474 -169.280 -1 -18.0872 -169.799 40 990 -17.8474 -169.280 TC 35 -17.8641 -169.257 2 -18.0575 -169.762 TC 27 9 205
1973311S17191 1974 120 SP MM NOT_NAMED 1973-11-07 12:00:00 TS -18.3800 -169.680 40 990 wellington main 579 579 O_______OOO_O_ jtwc_sh SH051974 -18.3000 -169.600 -1 -18.5000 -169.800 40 990 -18.3000 190.400 TC 35 -18.3000 -169.600 2 -18.5000 -169.800 TC 30 10 203
1973311S17191 1974 120 SP MM NOT_NAMED 1973-11-07 15:00:00 TS -18.8760 -169.885 main 621 621 P_______PPP_P_ SH051974 -18.8700 -169.895 -1 -18.8763 -169.879 40 990 -18.8700 -169.895 TC 35 -18.8489 -169.878 2 -18.9150 -169.877 TC 30 11 199
1973311S17191 1974 120 SP MM NOT_NAMED 1973-11-07 18:00:00 TS -19.4009 -170.058 main 665 665 O_______POP_O_ jtwc_sh SH051974 -19.5000 -170.100 -1 -19.2351 -170.012 40 990 -19.5000 189.900 TC 35 -19.4694 -170.079 2 -19.3000 -170.000 TC 30 11 195
1973311S17191 1974 120 SP MM NOT_NAMED 1973-11-07 21:00:00 TS -19.9203 -170.188 main 715 715 P_______PPP_P_ SH051974 -20.1299 -170.218 -1 -19.6014 -170.164 40 990 -20.1299 -170.218 TC 35 -20.1053 -170.190 2 -19.6350 -170.150 TC 32 10 189
1973311S17191 1974 120 SP MM NOT_NAMED 1973-11-08 00:00:00 TS -20.4200 -170.240 40 990 wellington main 768 768 O_______OOO_O_ jtwc_sh SH051974 -20.7000 -170.200 -1 -20.0000 -170.300 40 990 -20.7000 189.800 TC 35 -20.7000 -170.200 2 -20.0000 -170.300 TC 35 10 0
1973311S17191 1974 120 SP MM NOT_NAMED 1973-11-08 03:00:00 TS -20.8724 -170.202 main 822 822 P_______PPP_P_ SH051974 -21.1225 -170.038 -1 -20.4640 -170.408 40 990 -21.1225 -170.038 TC 35 -21.1753 -170.106 2 -20.4775 -170.422 TC 32 9 172
1973311S17191 1974 120 SP MM NOT_NAMED 1973-11-08 06:00:00 TS -21.3130 -170.101 main 868 868 O_______POP_O_ jtwc_sh SH051974 -21.5000 -169.800 -1 -20.9624 -170.489 40 990 -21.5000 190.200 TC 35 -21.6025 -169.914 2 -21.0000 -170.500 TC 30 9 167
1973311S17191 1974 120 SP MM NOT_NAMED 1973-11-08 09:00:00 TS -21.7766 -169.986 main 924 924 P_______PPP_P_ SH051974 -21.9500 -169.600 -1 -21.4796 -170.526 40 990 -21.9500 -169.600 TC 35 -22.0035 -169.665 2 -21.5000 -170.537 TC 30 10 165
1973311S17191 1974 120 SP MM NOT_NAMED 1973-11-08 12:00:00 TS -22.2400 -169.840 40 990 wellington main 973 973 O_______OOO_O_ jtwc_sh SH051974 -22.4000 -169.400 -1 -22.0000 -170.500 40 990 -22.4000 190.600 TC 35 -22.4000 -169.400 2 -22.0000 -170.500 TC 30 9 163
1973311S17191 1974 120 SP MM NOT_NAMED 1973-11-08 15:00:00 TS -22.6710 -169.690 main 1030 1030 P_______PPP_P_ SH051974 -22.7999 -169.207 -1 -22.4754 -170.426 40 990 -22.7999 -169.207 TC 35 -22.7797 -169.228 2 -22.5000 -170.380 TC 30 9 160
1973311S17191 1974 120 SP MM NOT_NAMED 1973-11-08 18:00:00 TS -23.1042 -169.505 main 1078 1078 O_______POP_O_ jtwc_sh SH051974 -23.2000 -169.000 -1 -22.9546 -170.283 40 990 -23.2000 191.000 TC 35 -23.1664 -169.043 2 -23.0000 -170.200 TC 30 10 158
1973311S17191 1974 120 SP MM NOT_NAMED 1973-11-08 21:00:00 TS -23.5507 -169.301 main 1137 1137 P_______PPP_P_ SH051974 -23.6123 -168.794 -1 -23.4565 -170.075 40 990 -23.6123 -168.794 TC 35 -23.5950 -168.812 2 -23.4774 -170.030 TC 27 11 155
1973311S17191 1974 120 SP MM NOT_NAMED 1973-11-09 00:00:00 TS -24.0600 -169.020 40 990 wellington main 1200 1200 O_______OOO_O_ jtwc_sh SH051974 -24.1000 -168.500 -1 -24.0000 -169.800 40 990 -24.1000 191.500 TC 35 -24.1000 -168.500 2 -24.0000 -169.800 TC 25 13 151
1973311S17191 1974 120 SP MM NOT_NAMED 1973-11-09 03:00:00 TS -24.6740 -168.626 main 1276 1276 P_______PPP_P_ SH051974 -24.7051 -168.045 -1 -24.5939 -169.515 37 991 -24.7051 -168.045 TC 35 -24.7384 -168.040 2 -24.6275 -169.487 TC 25 15 149
1973311S17191 1974 120 SP MM NOT_NAMED 1973-11-09 06:00:00 TS -25.3561 -168.152 main 1363 1363 O_______POP_O_ jtwc_sh SH051974 -25.4000 -167.500 -1 -25.2311 -169.161 35 993 -25.4000 192.500 TC 35 -25.4493 -167.499 2 -25.3000 -169.100 TC 25 17 148
1973311S17191 1974 120 SP MM NOT_NAMED 1973-11-09 09:00:00 TS -26.0676 -167.646 main 1456 1456 P_______PPP_P_ SH051974 -26.1576 -166.935 -1 -25.9028 -168.727 32 995 -26.1576 -166.935 TC 35 -26.1854 -166.933 2 -25.9346 -168.701 TC 22 17 147
1973311S17191 1974 120 SP MM NOT_NAMED 1973-11-09 12:00:00 TS -26.7800 -167.120 30 997 wellington main 1547 1547 O_______OOO_O_ jtwc_sh SH051974 -26.9000 -166.400 -1 -26.6000 -168.200 30 997 -26.9000 193.600 TC 35 -26.9000 -166.400 2 -26.6000 -168.200 TC 20 17 145
1973311S17191 1974 120 SP MM NOT_NAMED 1973-11-09 15:00:00 TS -27.4277 -166.599 main 1627 1627 P_______PPP_P_ SH051974 -27.5222 -165.969 -1 -27.3243 -167.578 30 997 -27.5222 -165.969 TC 35 -27.4272 -165.935 2 -27.3425 -167.545 TC 20 16 144
1973311S17191 1974 120 SP MM NOT_NAMED 1973-11-09 18:00:00 TS -28.0617 -166.077 main 1718 1718 O_______POP_O_ jtwc_sh SH051974 -28.1000 -165.600 -1 -28.0657 -166.864 30 997 -28.1000 194.400 TC 35 -27.9427 -165.520 2 -28.1000 -166.800 TC 20 16 144
1973311S17191 1974 120 SP MM NOT_NAMED 1973-11-09 21:00:00 TS -28.6861 -165.552 main 1773 1769 P_______PPP_P_ SH051974 -28.6400 -165.219 -1 -28.7990 -166.093 30 997 -28.6400 -165.219 TC 35 -28.5368 -165.170 2 -28.8147 -166.057 TC 20 16 146
1973311S17191 1974 120 SP MM NOT_NAMED 1973-11-10 00:00:00 TS -29.3800 -165.060 30 997 wellington main 1764 1752 O_______OOO_O_ jtwc_sh SH051974 -29.3000 -164.900 -1 -29.5000 -165.300 30 997 -29.3000 195.100 TC 35 -29.3000 -164.900 2 -29.5000 -165.300 TC 20 17 152
1973311S17191 1974 120 SP MM NOT_NAMED 1973-11-10 03:00:00 TS -30.2006 -164.615 main 1754 1734 P_______PPP_P_ SH051974 -30.1726 -164.648 -1 -30.1889 -164.504 30 997 -30.1726 -164.648 TC 35 -30.2972 -164.718 2 -30.1719 -164.557 TC 20 19 156
1973311S17191 1974 120 SP MM NOT_NAMED 1973-11-10 06:00:00 TS -31.1066 -164.166 main 1734 1729 O_______POP_O_ jtwc_sh SH051974 -31.3000 -164.500 -1 -30.8355 -163.699 30 997 -31.3000 195.500 TC 35 -31.4899 -164.606 2 -30.8000 -163.800 TC 20 20 154
1973311S17191 1974 120 SP MM NOT_NAMED 1973-11-10 09:00:00 TS -31.9724 -163.608 main 1737 1737 P_______PPP_P_ SH051974 -32.6799 -164.467 -1 -31.4142 -162.920 30 997 -32.6799 -164.467 TC 35 -32.8129 -164.541 2 -31.4027 -162.970 TC 20 18 141
1973311S17191 1974 120 SP MM NOT_NAMED 1973-11-10 12:00:00 TS -32.5273 -162.827 30 997 wellington main 1781 1781 O_______OOO_O_ jtwc_sh SH051974 -34.2000 -164.500 -1 -31.9000 -162.200 30 997 -34.2000 195.500 TC 35 -34.2000 -164.500 2 -31.9000 -162.200 TC 20 17 100
1973311S17191 1974 120 SP MM NOT_NAMED 1973-11-10 15:00:00 TS -32.2608 -161.588 main 1893 1893 ________P___P_ SH051974 -1 -32.2775 -161.565 30 997 TC 2 -32.2442 -161.611 TC 17 15 90
1973311S17191 1974 120 SP MM NOT_NAMED 1973-11-10 18:00:00 TS -32.5337 -161.052 main 1927 1927 ________P___O_ -1 -32.5674 -161.003 30 997 2 -32.5000 -161.100 TC 15 10 120
1973311S17191 1974 120 SP MM NOT_NAMED 1973-11-10 21:00:00 TS -32.7735 -160.527 main 1965 1965 ________P___P_ -1 -32.7987 -160.490 30 997 2 -32.7483 -160.564 TC 15 10 118
1973311S17191 1974 120 SP MM NOT_NAMED 1973-11-11 00:00:00 TS -33.0000 -160.000 30 997 wellington main 2001 ________O___O_ -1 -33.0000 -160.000 30 997 -33.0000 -160.000 TC 15 10 117

Digital Typhoon Data and Search

About IBTrACS Database

This database is a web-friendly format of International Best Track Archive for Climate Stewardship (IBTrACS), a global best track data archive curated by NOAA dating back to 1842.

Updated: 2021-11-26